createdAt,value
2018-09-28T00:00:18.708Z,1.1
2018-09-28T00:02:18.485Z,0.6
2018-09-28T00:04:19.262Z,1
2018-09-28T00:06:18.483Z,1
2018-09-28T00:08:18.243Z,1.1
2018-09-28T00:10:19.525Z,0.7
2018-09-28T00:12:18.612Z,0.7
2018-09-28T00:14:18.399Z,0.7
2018-09-28T00:16:18.187Z,0.9
2018-09-28T00:18:18.056Z,1.1
2018-09-28T00:20:18.850Z,0.7
2018-09-28T00:22:17.669Z,1.1
2018-09-28T00:24:18.447Z,0.9
2018-09-28T00:26:19.035Z,0.8
2018-09-28T00:28:18.824Z,0.8
2018-09-28T00:30:18.773Z,1
2018-09-28T00:32:18.794Z,1.1
2018-09-28T00:34:18.570Z,1.2
2018-09-28T00:36:18.663Z,0.8
2018-09-28T00:38:19.472Z,1
2018-09-28T00:40:18.819Z,0.9
2018-09-28T00:42:18.604Z,0.5
2018-09-28T00:44:19.406Z,1
2018-09-28T00:46:19.507Z,0.8
2018-09-28T00:48:19.291Z,0.6
2018-09-28T00:50:19.122Z,1
2018-09-28T00:52:18.911Z,0.7
2018-09-28T00:54:18.712Z,0.8
2018-09-28T00:56:19.402Z,0.8
2018-09-28T00:58:18.189Z,1
2018-09-28T01:00:19.028Z,0.9
2018-09-28T01:02:17.806Z,0.8
2018-09-28T01:04:18.577Z,1
2018-09-28T01:06:18.729Z,1
2018-09-28T01:08:18.526Z,0.6
2018-09-28T01:10:17.795Z,1.4
2018-09-28T01:12:18.567Z,1.3
2018-09-28T01:14:19.375Z,0.9
2018-09-28T01:16:17.969Z,1
2018-09-28T01:18:18.830Z,0.7
2018-09-28T01:20:17.616Z,1
2018-09-28T01:22:18.751Z,1.2
2018-09-28T01:24:18.532Z,0.9
2018-09-28T01:26:19.211Z,1.4
2018-09-28T01:28:18.986Z,1
2018-09-28T01:30:18.816Z,1.1
2018-09-28T01:32:18.610Z,1.3
2018-09-28T01:34:19.392Z,1.3
2018-09-28T01:36:18.540Z,1.2
2018-09-28T01:38:19.310Z,1
2018-09-28T01:40:18.596Z,1.5
2018-09-28T01:42:19.374Z,1.1
2018-09-28T01:44:18.157Z,1.1
2018-09-28T01:46:18.694Z,1.3
2018-09-28T01:48:19.495Z,2.2
2018-09-28T01:50:19.281Z,1.3
2018-09-28T01:52:19.053Z,1.6
2018-09-28T01:54:18.836Z,1.5
2018-09-28T01:56:19.493Z,1.4
2018-09-28T01:58:19.285Z,1.9
2018-09-28T02:00:19.061Z,1.8
2018-09-28T02:02:18.841Z,1.3
2018-09-28T02:04:18.640Z,1.5
2018-09-28T02:06:19.175Z,1.3
2018-09-28T02:08:17.966Z,1.3
2018-09-28T02:10:18.259Z,1.2
2018-09-28T02:12:18.056Z,1.6
2018-09-28T02:14:18.824Z,1.4
2018-09-28T02:16:18.895Z,2.4
2018-09-28T02:18:18.743Z,1.8
2018-09-28T02:20:18.523Z,1.8
2018-09-28T02:22:19.296Z,1.7
2018-09-28T02:24:19.075Z,1.1
2018-09-28T02:26:18.256Z,2.3
2018-09-28T02:28:19.038Z,1.9
2018-09-28T02:30:18.841Z,2.1
2018-09-28T02:32:18.627Z,2.2
2018-09-28T02:34:19.433Z,2.2
2018-09-28T02:36:18.946Z,1.9
2018-09-28T02:38:18.716Z,2.3
2018-09-28T02:40:19.013Z,2
2018-09-28T02:42:18.801Z,2
2018-09-28T02:44:18.646Z,1.8
2018-09-28T02:46:19.180Z,2.2
2018-09-28T02:48:18.962Z,2.1
2018-09-28T02:50:17.766Z,2.4
2018-09-28T02:52:18.526Z,3.2
2018-09-28T02:54:19.318Z,2.2
2018-09-28T02:56:19.401Z,2.3
2018-09-28T02:58:19.181Z,2.5
2018-09-28T03:00:18.954Z,2.6
2018-09-28T03:02:18.752Z,2.5
2018-09-28T03:04:18.519Z,2.4
2018-09-28T03:06:19.147Z,2.8
2018-09-28T03:08:19.039Z,3.9
2018-09-28T03:10:19.303Z,2.6
2018-09-28T03:12:19.099Z,2.6
2018-09-28T03:14:18.886Z,3.4
2018-09-28T03:16:18.580Z,3.1
2018-09-28T03:18:19.424Z,3.3
2018-09-28T03:20:19.193Z,2.7
2018-09-28T03:22:18.996Z,4.5
2018-09-28T03:24:17.801Z,4
2018-09-28T03:26:18.841Z,2.7
2018-09-28T03:28:18.626Z,3.7
2018-09-28T03:30:19.431Z,2.7
2018-09-28T03:32:19.004Z,2.8
2018-09-28T03:34:18.765Z,5
2018-09-28T03:36:18.884Z,4
2018-09-28T03:38:18.672Z,3.6
2018-09-28T03:40:18.961Z,3.6
2018-09-28T03:42:18.740Z,3.7
2018-09-28T03:44:18.556Z,2.9
2018-09-28T03:46:19.113Z,3.8
2018-09-28T03:48:18.890Z,2.9
2018-09-28T03:50:18.715Z,4.1
2018-09-28T03:52:19.488Z,3.9
2018-09-28T03:54:19.271Z,3.5
2018-09-28T03:56:19.090Z,3.7
2018-09-28T03:58:18.887Z,4.3
2018-09-28T04:00:18.689Z,4.1
2018-09-28T04:02:19.483Z,3.8
2018-09-28T04:04:19.282Z,4
2018-09-28T04:06:18.912Z,5
2018-09-28T04:08:18.702Z,4.3
2018-09-28T04:10:19.032Z,4.8
2018-09-28T04:12:18.876Z,4.9
2018-09-28T04:14:18.664Z,5.3
2018-09-28T04:16:19.411Z,4.9
2018-09-28T04:18:19.324Z,4.6
2018-09-28T04:20:19.160Z,4.3
2018-09-28T04:22:18.950Z,5.2
2018-09-28T04:24:18.706Z,4.7
2018-09-28T04:26:19.342Z,4.7
2018-09-28T04:28:19.140Z,5
2018-09-28T04:30:18.957Z,5.7
2018-09-28T04:32:18.746Z,4.1
2018-09-28T04:34:18.564Z,5.1
2018-09-28T04:36:18.683Z,5
2018-09-28T04:38:19.454Z,4.7
2018-09-28T04:40:18.729Z,5
2018-09-28T04:42:19.464Z,4.9
2018-09-28T04:44:19.224Z,5.9
2018-09-28T04:46:18.885Z,6.1
2018-09-28T04:48:18.668Z,5.5
2018-09-28T04:50:19.480Z,5.3
2018-09-28T04:52:19.282Z,5.1
2018-09-28T04:54:19.078Z,5.5
2018-09-28T04:56:19.160Z,6
2018-09-28T04:58:18.932Z,5.7
2018-09-28T05:00:18.710Z,5.5
2018-09-28T05:02:19.493Z,6.2
2018-09-28T05:04:19.261Z,6.8
2018-09-28T05:06:18.823Z,5.4
2018-09-28T05:08:18.600Z,5.5
2018-09-28T05:10:18.991Z,5.6
2018-09-28T05:12:18.779Z,4.8
2018-09-28T05:14:18.583Z,7
2018-09-28T05:16:19.466Z,6.2
2018-09-28T05:18:19.325Z,4.7
2018-09-28T05:20:19.105Z,5.7
2018-09-28T05:22:18.899Z,5.6
2018-09-28T05:24:18.699Z,6.4
2018-09-28T05:26:18.840Z,4.8
2018-09-28T05:28:18.642Z,6.4
2018-09-28T05:30:19.437Z,6.4
2018-09-28T05:32:19.325Z,5.4
2018-09-28T05:34:19.454Z,7.3
2018-09-28T05:36:19.075Z,6.5
2018-09-28T05:38:18.859Z,6.1
2018-09-28T05:40:19.120Z,6.3
2018-09-28T05:42:18.909Z,6.2
2018-09-28T05:44:18.689Z,6.6
2018-09-28T05:46:18.839Z,5.6
2018-09-28T05:48:18.684Z,6.3
2018-09-28T05:50:19.464Z,6.5
2018-09-28T05:52:19.092Z,5.8
2018-09-28T05:54:18.884Z,4.8
2018-09-28T05:56:18.709Z,5.4
2018-09-28T05:58:19.486Z,6.4
2018-09-28T06:00:19.267Z,5.5
2018-09-28T06:02:19.043Z,4.6
2018-09-28T06:04:18.816Z,5.2
2018-09-28T06:06:18.973Z,5.7
2018-09-28T06:08:18.739Z,5.9
2018-09-28T06:10:19.027Z,6
2018-09-28T06:12:18.805Z,5.6
2018-09-28T06:14:18.578Z,5.2
2018-09-28T06:16:19.197Z,5.2
2018-09-28T06:18:19.048Z,5.4
2018-09-28T06:20:18.871Z,6
2018-09-28T06:22:18.675Z,4.5
2018-09-28T06:24:19.483Z,4.6
2018-09-28T06:26:18.561Z,5.1
2018-09-28T06:28:19.360Z,5.4
2018-09-28T06:30:19.220Z,4.5
2018-09-28T06:32:19.219Z,4
2018-09-28T06:34:19.008Z,3.8
2018-09-28T06:36:18.708Z,5.6
2018-09-28T06:38:18.669Z,5.3
2018-09-28T06:40:18.967Z,4.9
2018-09-28T06:42:18.887Z,4.4
2018-09-28T06:44:18.804Z,4.1
2018-09-28T06:46:19.018Z,4.1
2018-09-28T06:48:18.911Z,3.1
2018-09-28T06:50:18.791Z,2.9
2018-09-28T06:52:19.308Z,3.7
2018-09-28T06:54:19.154Z,2.9
2018-09-28T06:56:18.859Z,3.5
2018-09-28T06:58:18.765Z,3.2
2018-09-28T07:00:18.851Z,2.2
2018-09-28T07:02:18.773Z,1.6
2018-09-28T07:04:18.545Z,2.2
2018-09-28T07:06:18.822Z,1.1
2018-09-28T07:08:18.772Z,1.3
2018-09-28T07:10:19.040Z,1.3
2018-09-28T07:12:18.913Z,0.9
2018-09-28T07:14:18.921Z,1
2018-09-28T07:16:19.375Z,1.4
2018-09-28T07:18:19.445Z,0.8
2018-09-28T07:20:19.358Z,0.5
2018-09-28T07:22:19.132Z,0.5
2018-09-28T07:24:18.954Z,0.6
2018-09-28T07:26:18.651Z,0.4
2018-09-28T07:28:19.476Z,1.1
2018-09-28T07:30:19.328Z,0.9
2018-09-28T07:32:19.323Z,0.6
2018-09-28T07:34:19.111Z,1
2018-09-28T07:36:19.384Z,0.8
2018-09-28T07:38:19.486Z,0.7
2018-09-28T07:40:18.745Z,1
2018-09-28T07:42:18.596Z,0.3
2018-09-28T07:44:18.626Z,0.8
2018-09-28T07:46:19.159Z,1.5
2018-09-28T07:48:19.054Z,0.6
2018-09-28T07:50:18.941Z,1.3
2018-09-28T07:52:18.706Z,0.8
2018-09-28T07:54:19.504Z,0.9
2018-09-28T07:56:18.609Z,0.6
2018-09-28T07:58:19.386Z,0.7
2018-09-28T08:00:19.167Z,0.7
2018-09-28T08:02:18.772Z,0.8
2018-09-28T08:04:18.539Z,0.8
2018-09-28T08:06:19.231Z,0.4
2018-09-28T08:08:19.020Z,0.6
2018-09-28T08:10:19.314Z,1
2018-09-28T08:12:19.132Z,1.3
2018-09-28T08:14:18.920Z,0.6
2018-09-28T08:16:19.158Z,1.1
2018-09-28T08:18:19.031Z,0.9
2018-09-28T08:20:18.827Z,0.9
2018-09-28T08:22:18.617Z,0.8
2018-09-28T08:24:19.420Z,0.5
2018-09-28T08:26:19.040Z,0.2
2018-09-28T08:28:18.806Z,1.3
2018-09-28T08:30:18.683Z,1.2
2018-09-28T08:32:18.571Z,0.9
2018-09-28T08:34:19.358Z,0.8
2018-09-28T08:36:19.585Z,0.3
2018-09-28T08:38:18.517Z,0.7
2018-09-28T08:40:18.777Z,0.6
2018-09-28T08:42:18.549Z,0.9
2018-09-28T08:44:19.326Z,0.7
2018-09-28T08:46:18.907Z,1.1
2018-09-28T08:48:18.755Z,0.9
2018-09-28T08:50:18.563Z,1.3
2018-09-28T08:52:19.329Z,0.5
2018-09-28T08:54:19.098Z,0.6
2018-09-28T08:56:18.613Z,1.2
2018-09-28T08:58:19.390Z,1.1
2018-09-28T09:00:19.203Z,1.1
2018-09-28T09:02:19.122Z,1.2
2018-09-28T09:04:19.092Z,0.9
2018-09-28T09:06:18.700Z,0.9
2018-09-28T09:08:19.503Z,0.8
2018-09-28T09:10:18.924Z,1.6
2018-09-28T09:12:18.734Z,1.2
2018-09-28T09:14:19.520Z,1
2018-09-28T09:16:17.631Z,0.6
2018-09-28T09:18:19.571Z,0.4
2018-09-28T09:20:18.568Z,0.7
2018-09-28T09:22:19.348Z,0.8
2018-09-28T09:24:19.119Z,0.4
2018-09-28T09:26:19.182Z,0.8
2018-09-28T09:28:18.973Z,0.9
2018-09-28T09:30:17.948Z,1.2
2018-09-28T09:32:19.018Z,0.6
2018-09-28T09:34:18.822Z,1.1
2018-09-28T09:36:18.902Z,1.1
2018-09-28T09:38:18.688Z,1
2018-09-28T09:40:18.929Z,0.8
2018-09-28T09:42:18.720Z,0.5
2018-09-28T09:44:19.482Z,0.7
2018-09-28T09:46:18.727Z,0.4
2018-09-28T09:48:19.522Z,1.3
2018-09-28T09:50:19.414Z,0.9
2018-09-28T09:52:19.189Z,0.7
2018-09-28T09:54:17.978Z,0.9
2018-09-28T09:56:19.070Z,0.8
2018-09-28T09:58:18.844Z,0.7
2018-09-28T10:00:18.622Z,0.9
2018-09-28T10:02:19.398Z,1.7
2018-09-28T10:04:19.182Z,0.8
2018-09-28T10:06:18.266Z,0.8
2018-09-28T10:08:19.097Z,1.1
2018-09-28T10:10:18.390Z,1
2018-09-28T10:12:19.234Z,1.3
2018-09-28T10:14:19.172Z,0.9
2018-09-28T10:16:19.237Z,1
2018-09-28T10:18:19.090Z,0.6
2018-09-28T10:20:18.867Z,1.5
2018-09-28T10:22:17.671Z,0.9
2018-09-28T10:24:19.492Z,1.5
2018-09-28T10:26:18.696Z,1.6
2018-09-28T10:28:19.609Z,1.1
2018-09-28T10:30:18.673Z,1.6
2018-09-28T10:32:19.500Z,1.7
2018-09-28T10:34:18.349Z,1.1
2018-09-28T10:36:18.617Z,1
2018-09-28T10:38:18.434Z,1.4
2018-09-28T10:40:18.776Z,1.1
2018-09-28T10:42:19.151Z,0.6
2018-09-28T10:44:18.952Z,1.1
2018-09-28T10:46:18.538Z,0.9
2018-09-28T10:48:19.329Z,1.6
2018-09-28T10:50:19.193Z,1.3
2018-09-28T10:52:19.276Z,1
2018-09-28T10:54:19.499Z,0.7
2018-09-28T10:56:17.810Z,2.3
2018-09-28T10:58:18.688Z,1.5
2018-09-28T11:00:18.639Z,1.2
2018-09-28T11:02:19.527Z,0.7
2018-09-28T11:04:18.380Z,0.5
2018-09-28T11:06:18.548Z,0.9
2018-09-28T11:08:19.372Z,1.2
2018-09-28T11:10:19.013Z,1
2018-09-28T11:12:18.910Z,1.4
2018-09-28T11:14:17.721Z,0.7
2018-09-28T11:16:17.549Z,0.6
2018-09-28T11:18:18.419Z,0.8
2018-09-28T11:20:18.308Z,1.2
2018-09-28T11:22:17.762Z,1.2
2018-09-28T11:24:18.526Z,0.6
2018-09-28T11:26:18.634Z,0.6
2018-09-28T11:28:19.522Z,1.4
2018-09-28T11:30:19.321Z,0.9
2018-09-28T11:32:19.091Z,1
2018-09-28T11:34:17.884Z,0.8
2018-09-28T11:36:19.453Z,1
2018-09-28T11:38:18.231Z,0.7
2018-09-28T11:40:19.500Z,0.9
2018-09-28T11:42:18.294Z,0.8
2018-09-28T11:44:19.098Z,0.4
2018-09-28T11:46:18.439Z,0.6
2018-09-28T11:48:19.219Z,1
2018-09-28T11:50:18.997Z,0.8
2018-09-28T11:52:18.795Z,0.6
2018-09-28T11:54:18.604Z,0.8
2018-09-28T11:56:19.210Z,0.7
2018-09-28T11:58:18.983Z,0.4
2018-09-28T12:00:18.772Z,0.8
2018-09-28T12:02:18.553Z,0.8
2018-09-28T12:04:18.338Z,0.8
2018-09-28T12:06:18.894Z,0.9
2018-09-28T12:08:17.902Z,0.8
2018-09-28T12:10:18.275Z,0.6
2018-09-28T12:12:18.819Z,0.7
2018-09-28T12:14:18.842Z,0.8
2018-09-28T12:16:18.540Z,0.6
2018-09-28T12:18:19.458Z,0.5
2018-09-28T12:20:19.454Z,0.6
2018-09-28T12:22:19.223Z,0.9
2018-09-28T12:24:18.086Z,0.9
2018-09-28T12:26:19.343Z,0.6
2018-09-28T12:28:19.122Z,0.6
2018-09-28T12:30:18.986Z,1
2018-09-28T12:32:18.913Z,0.4
2018-09-28T12:34:18.704Z,1.2
2018-09-28T12:36:19.306Z,0.3
2018-09-28T12:38:19.164Z,0.7
2018-09-28T12:40:18.437Z,1
2018-09-28T12:42:19.271Z,0.6
2018-09-28T12:44:19.261Z,1.5
2018-09-28T12:46:19.460Z,0.9
2018-09-28T12:48:19.295Z,0.5
2018-09-28T12:50:19.219Z,0.4
2018-09-28T12:52:19.202Z,1.3
2018-09-28T12:54:18.992Z,0.9
2018-09-28T12:56:19.318Z,0.5
2018-09-28T12:58:18.246Z,0.9
2018-09-28T13:00:19.123Z,0.3
2018-09-28T13:02:18.105Z,0.7
2018-09-28T13:04:17.974Z,0.5
2018-09-28T13:06:17.623Z,0.7
2018-09-28T13:08:19.490Z,0.9
2018-09-28T13:10:18.922Z,0.8
2018-09-28T13:12:17.744Z,0.3
2018-09-28T13:14:17.641Z,0.3
2018-09-28T13:16:17.882Z,0.4
2018-09-28T13:18:18.791Z,0.5
2018-09-28T13:20:18.668Z,0.6
2018-09-28T13:22:17.566Z,0.5
2018-09-28T13:24:18.459Z,0.9
2018-09-28T13:26:18.292Z,0.5
2018-09-28T13:28:18.110Z,0.6
2018-09-28T13:30:17.922Z,0.7
2018-09-28T13:32:17.906Z,0.3
2018-09-28T13:34:17.831Z,0.5
2018-09-28T13:36:17.925Z,1
2018-09-28T13:38:17.858Z,0.4
2018-09-28T13:40:18.358Z,0.8
2018-09-28T13:42:18.190Z,0.4
2018-09-28T13:44:18.132Z,0.4
2018-09-28T13:46:18.137Z,0.6
2018-09-28T13:48:17.947Z,0.5
2018-09-28T13:50:17.944Z,0.4
2018-09-28T13:52:17.942Z,0.4
2018-09-28T13:54:17.894Z,0.7
2018-09-28T13:56:17.578Z,0.5
2018-09-28T13:58:18.568Z,0.4
2018-09-28T14:00:19.591Z,1
2018-09-28T14:02:17.564Z,0.7
2018-09-28T14:04:18.568Z,0.6
2018-09-28T14:06:17.855Z,0.6
2018-09-28T14:08:17.855Z,1.5
2018-09-28T14:10:18.356Z,0.8
2018-09-28T14:12:18.296Z,2.6
2018-09-28T14:14:18.384Z,1.2
2018-09-28T14:16:18.276Z,1.5
2018-09-28T14:18:18.328Z,0.9
2018-09-28T14:20:18.297Z,0.8
2018-09-28T14:22:18.209Z,1.1
2018-09-28T14:24:18.257Z,0.5
2018-09-28T14:26:17.953Z,0.5
2018-09-28T14:28:17.883Z,1.7
2018-09-28T14:30:17.863Z,0.5
2018-09-28T14:32:17.869Z,0.5
2018-09-28T14:34:17.894Z,0.7
2018-09-28T14:36:18.718Z,0.9
2018-09-28T14:38:17.711Z,0.6
2018-09-28T14:40:19.210Z,0.9
2018-09-28T14:42:18.279Z,0.5
2018-09-28T14:44:18.297Z,1
2018-09-28T14:46:17.697Z,0.6
2018-09-28T14:48:17.724Z,0.6
2018-09-28T14:50:18.749Z,0.5
2018-09-28T14:52:18.590Z,0.7
2018-09-28T14:54:18.586Z,0.5
2018-09-28T14:56:18.350Z,1
2018-09-28T14:58:18.313Z,1.1
2018-09-28T15:00:19.408Z,0.9
2018-09-28T15:02:18.535Z,0.7
2018-09-28T15:04:18.560Z,0.3
2018-09-28T15:06:19.297Z,0.8
2018-09-28T15:08:18.253Z,0.8
2018-09-28T15:10:17.715Z,0.9
2018-09-28T15:12:18.689Z,1
2018-09-28T15:14:18.636Z,0.6
2018-09-28T15:16:18.905Z,0.9
2018-09-28T15:18:18.041Z,0.6
2018-09-28T15:20:18.996Z,0.6
2018-09-28T15:22:17.788Z,0.4
2018-09-28T15:24:17.585Z,0.5
2018-09-28T15:26:19.339Z,0.6
2018-09-28T15:28:18.140Z,0.9
2018-09-28T15:30:18.076Z,0.3
2018-09-28T15:32:18.959Z,0.5
2018-09-28T15:34:17.758Z,0.3
2018-09-28T15:36:18.374Z,0.3
2018-09-28T15:38:18.168Z,0.4
2018-09-28T15:40:19.427Z,0.7
2018-09-28T15:42:18.231Z,0.7
2018-09-28T15:44:19.005Z,1.1
2018-09-28T15:46:19.102Z,0.7
2018-09-28T15:48:18.879Z,0.5
2018-09-28T15:50:18.669Z,0.4
2018-09-28T15:52:18.491Z,0.5
2018-09-28T15:54:19.303Z,0.5
2018-09-28T15:56:19.435Z,0.8
2018-09-28T15:58:19.218Z,0.7
2018-09-28T16:00:19.005Z,0.5
2018-09-28T16:02:18.788Z,0.9
2018-09-28T16:04:18.574Z,0.8
2018-09-28T16:06:18.656Z,0.7
2018-09-28T16:08:19.451Z,0.8
2018-09-28T16:10:18.703Z,0.5
2018-09-28T16:12:19.497Z,1
2018-09-28T16:14:19.285Z,0.8
2018-09-28T16:16:18.892Z,1
2018-09-28T16:18:18.793Z,0.4
2018-09-28T16:20:18.637Z,0.6
2018-09-28T16:22:19.430Z,0.7
2018-09-28T16:24:18.203Z,0.3
2018-09-28T16:26:18.749Z,0.7
2018-09-28T16:28:18.562Z,0.5
2018-09-28T16:30:19.454Z,0.5
2018-09-28T16:32:19.231Z,0.7
2018-09-28T16:34:19.019Z,0.2
2018-09-28T16:36:18.568Z,0.6
2018-09-28T16:38:19.360Z,0.5
2018-09-28T16:40:18.602Z,0.5
2018-09-28T16:42:19.394Z,0.5
2018-09-28T16:44:19.168Z,0.7
2018-09-28T16:46:19.259Z,0.4
2018-09-28T16:48:19.047Z,0.4
2018-09-28T16:50:18.847Z,0.2
2018-09-28T16:52:18.619Z,0.4
2018-09-28T16:54:19.412Z,0.3
2018-09-28T16:56:19.132Z,0.4
2018-09-28T16:58:18.906Z,0.3
2018-09-28T17:00:18.841Z,0.3
2018-09-28T17:02:18.624Z,0.2
2018-09-28T17:04:19.428Z,0.3
2018-09-28T17:06:19.061Z,0.6
2018-09-28T17:08:18.860Z,0.2
2018-09-28T17:10:19.148Z,0.6
2018-09-28T17:12:18.962Z,0.5
2018-09-28T17:14:18.746Z,0.3
2018-09-28T17:16:18.901Z,0.9
2018-09-28T17:18:18.742Z,0.2
2018-09-28T17:20:18.541Z,0.6
2018-09-28T17:22:19.361Z,0.2
2018-09-28T17:24:19.225Z,0.6
2018-09-28T17:26:18.895Z,0.4
2018-09-28T17:28:18.751Z,0.8
2018-09-28T17:30:18.631Z,0.3
2018-09-28T17:32:18.430Z,0.4
2018-09-28T17:34:19.203Z,0.3
2018-09-28T17:36:19.499Z,0.3
2018-09-28T17:38:19.282Z,0.7
2018-09-28T17:40:18.514Z,0.7
2018-09-28T17:42:19.297Z,0.8
2018-09-28T17:44:19.075Z,0.5
2018-09-28T17:46:18.687Z,0.7
2018-09-28T17:48:19.512Z,0.8
2018-09-28T17:50:19.322Z,1.1
2018-09-28T17:52:19.110Z,1.1
2018-09-28T17:54:18.893Z,0.9
2018-09-28T17:56:19.469Z,1.3
2018-09-28T17:58:19.270Z,1.2
2018-09-28T18:00:19.072Z,0.8
2018-09-28T18:02:18.927Z,0.8
2018-09-28T18:04:18.691Z,0.8
2018-09-28T18:06:19.336Z,1
2018-09-28T18:08:19.151Z,0.8
2018-09-28T18:10:19.432Z,0.7
2018-09-28T18:12:19.230Z,1.4
2018-09-28T18:14:19.076Z,0.7
2018-09-28T18:16:18.932Z,1.1
2018-09-28T18:18:18.823Z,0.8
2018-09-28T18:20:18.663Z,1
2018-09-28T18:22:18.799Z,0.8
2018-09-28T18:24:18.667Z,0.7
2018-09-28T18:26:18.741Z,0.6
2018-09-28T18:28:18.524Z,1.5
2018-09-28T18:30:19.420Z,1.2
2018-09-28T18:32:19.226Z,0.9
2018-09-28T18:34:19.001Z,1.2
2018-09-28T18:36:18.712Z,0.8
2018-09-28T18:38:19.512Z,0.8
2018-09-28T18:40:18.779Z,0.9
2018-09-28T18:42:18.609Z,0.6
2018-09-28T18:44:18.536Z,0.5
2018-09-28T18:46:18.720Z,0.6
2018-09-28T18:48:19.505Z,1.3
2018-09-28T18:50:19.396Z,5.1
2018-09-28T18:52:19.163Z,3.2
2018-09-28T18:54:18.981Z,1.2
2018-09-28T18:56:18.538Z,0.8
2018-09-28T18:58:19.336Z,1
2018-09-28T19:00:19.113Z,1.1
2018-09-28T19:02:18.881Z,1.2
2018-09-28T19:04:18.641Z,1
2018-09-28T19:06:18.807Z,1.1
2018-09-28T19:08:18.812Z,1.3
2018-09-28T19:10:19.132Z,1
2018-09-28T19:12:18.933Z,1.1
2018-09-28T19:14:18.711Z,0.9
2018-09-28T19:16:19.353Z,1.2
2018-09-28T19:18:19.221Z,1.3
2018-09-28T19:20:19.005Z,1.7
2018-09-28T19:22:18.786Z,1.4
2018-09-28T19:24:18.554Z,1.2
2018-09-28T19:26:19.170Z,1.4
2018-09-28T19:28:18.959Z,1.4
2018-09-28T19:30:18.749Z,0.9
2018-09-28T19:32:18.532Z,1.1
2018-09-28T19:34:19.320Z,1
2018-09-28T19:36:19.383Z,1.8
2018-09-28T19:38:19.172Z,1.1
2018-09-28T19:40:19.467Z,0.9
2018-09-28T19:42:19.249Z,1
2018-09-28T19:44:19.025Z,1
2018-09-28T19:46:18.654Z,0.8
2018-09-28T19:48:19.466Z,1.2
2018-09-28T19:50:19.275Z,1
2018-09-28T19:52:19.066Z,0.6
2018-09-28T19:54:18.870Z,1.2
2018-09-28T19:56:19.385Z,1.4
2018-09-28T19:58:19.171Z,1.2
2018-09-28T20:00:18.965Z,0.9
2018-09-28T20:02:18.756Z,1.3
2018-09-28T20:04:18.548Z,0.9
2018-09-28T20:06:19.138Z,0.8
2018-09-28T20:08:19.212Z,1.1
2018-09-28T20:10:19.474Z,0.7
2018-09-28T20:12:19.236Z,1
2018-09-28T20:14:19.002Z,3
2018-09-28T20:16:19.213Z,6.3
2018-09-28T20:18:19.065Z,3.6
2018-09-28T20:20:18.857Z,2.3
2018-09-28T20:22:18.627Z,1.5
2018-09-28T20:24:19.402Z,1.6
2018-09-28T20:26:18.566Z,0.9
2018-09-28T20:28:19.319Z,1.6
2018-09-28T20:30:19.121Z,0.9
2018-09-28T20:32:18.952Z,1.3
2018-09-28T20:34:18.759Z,1.5
2018-09-28T20:36:19.078Z,1.1
2018-09-28T20:38:18.855Z,0.8
2018-09-28T20:40:19.197Z,1.7
2018-09-28T20:42:18.966Z,1.2
2018-09-28T20:44:18.733Z,0.8
2018-09-28T20:46:19.282Z,0.8
2018-09-28T20:48:19.060Z,0.8
2018-09-28T20:50:18.830Z,1.4
2018-09-28T20:52:18.627Z,1.2
2018-09-28T20:54:19.427Z,1.3
2018-09-28T20:56:18.983Z,1.3
2018-09-28T20:58:18.745Z,1.1
2018-09-28T21:00:18.620Z,1.8
2018-09-28T21:02:19.405Z,0.9
2018-09-28T21:04:19.177Z,1.2
2018-09-28T21:06:18.706Z,1.2
2018-09-28T21:08:19.490Z,1.2
2018-09-28T21:10:18.793Z,1.2
2018-09-28T21:12:18.563Z,1.5
2018-09-28T21:14:19.349Z,1.5
2018-09-28T21:16:18.547Z,1.2
2018-09-28T21:18:19.408Z,1.4
2018-09-28T21:20:19.221Z,1.5
2018-09-28T21:22:19.382Z,1
2018-09-28T21:24:19.188Z,1.2
2018-09-28T21:26:19.311Z,0.8
2018-09-28T21:28:19.101Z,1
2018-09-28T21:30:18.887Z,1.2
2018-09-28T21:32:18.647Z,1.1
2018-09-28T21:34:19.421Z,1.3
2018-09-28T21:36:19.025Z,1.5
2018-09-28T21:38:18.812Z,1.3
2018-09-28T21:40:19.110Z,3
2018-09-28T21:42:18.906Z,4.2
2018-09-28T21:44:18.711Z,2
2018-09-28T21:46:18.677Z,1.3
2018-09-28T21:48:19.443Z,1.2
2018-09-28T21:50:19.215Z,1
2018-09-28T21:52:18.984Z,1.4
2018-09-28T21:54:18.760Z,1.1
2018-09-28T21:56:18.884Z,1
2018-09-28T21:58:18.635Z,0.9
2018-09-28T22:00:19.410Z,1.1
2018-09-28T22:02:19.202Z,1.2
2018-09-28T22:04:19.010Z,1.1
2018-09-28T22:06:19.110Z,1.1
2018-09-28T22:08:18.903Z,1
2018-09-28T22:10:19.150Z,1.1
2018-09-28T22:12:18.944Z,1.1
2018-09-28T22:14:18.709Z,0.9
2018-09-28T22:16:19.245Z,1.1
2018-09-28T22:18:19.104Z,1.1
2018-09-28T22:20:18.882Z,1.1
2018-09-28T22:22:18.622Z,1.5
2018-09-28T22:24:19.481Z,0.8
2018-09-28T22:26:19.056Z,1.2
2018-09-28T22:28:18.867Z,1
2018-09-28T22:30:18.650Z,1.2
2018-09-28T22:32:19.412Z,1
2018-09-28T22:34:19.181Z,1.6
2018-09-28T22:36:18.803Z,1.4
2018-09-28T22:38:18.570Z,1.6
2018-09-28T22:40:18.817Z,1.6
2018-09-28T22:42:18.576Z,1.5
2018-09-28T22:44:19.370Z,2.2
2018-09-28T22:46:18.539Z,2.2
2018-09-28T22:48:19.330Z,4.2
2018-09-28T22:50:19.118Z,4.9
2018-09-28T22:52:18.894Z,3
2018-09-28T22:54:18.664Z,1.5
2018-09-28T22:56:18.769Z,1.7
2018-09-28T22:58:18.529Z,2
2018-09-28T23:00:19.294Z,1.6
2018-09-28T23:02:19.055Z,2.3
2018-09-28T23:04:18.840Z,1.3
2018-09-28T23:06:18.979Z,2
2018-09-28T23:08:18.738Z,1.5
2018-09-28T23:10:19.031Z,1.5
2018-09-28T23:12:18.790Z,1.4
2018-09-28T23:14:18.564Z,1.6
2018-09-28T23:16:19.109Z,1.2
2018-09-28T23:18:18.961Z,1.3
2018-09-28T23:20:18.750Z,1.5
2018-09-28T23:22:18.534Z,0.9
2018-09-28T23:24:19.274Z,1.3
2018-09-28T23:26:19.333Z,1.1
2018-09-28T23:28:19.096Z,1.3
2018-09-28T23:30:18.889Z,1.3
2018-09-28T23:32:18.655Z,0.4
2018-09-28T23:34:19.453Z,0.6
2018-09-28T23:36:19.531Z,1.2
2018-09-28T23:38:19.331Z,1.1
2018-09-28T23:40:18.564Z,0.8
2018-09-28T23:42:19.195Z,0.9
2018-09-28T23:44:18.960Z,0.9
2018-09-28T23:46:18.880Z,0.9
2018-09-28T23:48:18.645Z,1.2
2018-09-28T23:50:19.399Z,0.9
2018-09-28T23:52:19.184Z,0.8
2018-09-28T23:54:18.964Z,1.2
2018-09-28T23:56:18.839Z,0.8
2018-09-28T23:58:18.592Z,0.6
